createdAt,value
2023-01-07T00:00:17.171Z,74.33
2023-01-07T00:03:06.109Z,74.43
2023-01-07T00:05:35.085Z,74.22
2023-01-07T00:08:04.395Z,74.37
2023-01-07T00:10:34.020Z,74.22
2023-01-07T00:13:03.184Z,74.18
2023-01-07T00:15:32.179Z,74.27
2023-01-07T00:18:01.124Z,74.40
2023-01-07T00:20:30.372Z,74.41
2023-01-07T00:22:59.348Z,74.66
2023-01-07T00:25:28.666Z,74.83
2023-01-07T00:27:57.636Z,74.90
2023-01-07T00:30:26.782Z,75.13
2023-01-07T00:33:04.214Z,74.92
2023-01-07T00:35:36.346Z,75.10
2023-01-07T00:38:05.933Z,74.98
2023-01-07T00:40:35.588Z,74.85
2023-01-07T00:43:05.218Z,74.90
2023-01-07T00:45:37.027Z,74.88
2023-01-07T00:48:06.665Z,74.71
2023-01-07T00:50:37.126Z,74.84
2023-01-07T00:53:06.569Z,74.93
2023-01-07T00:55:35.573Z,75.00
2023-01-07T00:58:05.242Z,75.01
2023-01-07T01:00:34.712Z,75.02
2023-01-07T01:03:03.926Z,75.42
2023-01-07T01:05:33.398Z,75.27
2023-01-07T01:08:02.324Z,75.21
2023-01-07T01:10:31.960Z,75.30
2023-01-07T01:13:01.078Z,75.35
2023-01-07T01:15:30.099Z,75.23
2023-01-07T01:17:59.172Z,74.73
2023-01-07T01:20:28.087Z,74.75
2023-01-07T01:22:57.129Z,74.94
2023-01-07T01:25:26.051Z,75.20
2023-01-07T01:27:55.149Z,74.96
2023-01-07T01:30:24.318Z,75.10
2023-01-07T01:32:53.335Z,75.41
2023-01-07T01:35:22.532Z,75.47
2023-01-07T01:37:52.158Z,75.57
2023-01-07T01:40:21.391Z,75.26
2023-01-07T01:42:50.384Z,75.37
2023-01-07T01:45:20.120Z,75.48
2023-01-07T01:47:53.650Z,75.36
2023-01-07T01:50:27.305Z,75.14
2023-01-07T01:53:01.040Z,75.33
2023-01-07T01:55:35.703Z,75.36
2023-01-07T01:58:09.666Z,75.10
2023-01-07T02:00:38.902Z,75.34
2023-01-07T02:03:13.236Z,75.50
2023-01-07T02:05:43.991Z,75.83
2023-01-07T02:08:14.603Z,75.87
2023-01-07T02:10:43.583Z,75.96
2023-01-07T02:13:30.995Z,75.75
2023-01-07T02:16:08.889Z,76.02
2023-01-07T02:18:54.871Z,76.07
2023-01-07T02:21:42.344Z,75.64
2023-01-07T02:24:52.838Z,75.82
2023-01-07T02:28:05.963Z,75.81
2023-01-07T02:30:50.658Z,75.77
2023-01-07T02:33:36.433Z,75.84
2023-01-07T02:36:22.459Z,75.74
2023-01-07T02:39:09.351Z,76.02
2023-01-07T02:41:45.778Z,76.04
2023-01-07T02:44:27.766Z,76.17
2023-01-07T02:47:02.908Z,76.18
2023-01-07T02:49:31.893Z,76.36
2023-01-07T02:52:18.199Z,76.32
2023-01-07T02:54:53.995Z,76.11
2023-01-07T02:58:00.063Z,76.20
2023-01-07T03:00:46.904Z,76.35
2023-01-07T03:03:30.792Z,76.20
2023-01-07T03:06:12.662Z,76.19
2023-01-07T03:08:58.217Z,75.93
2023-01-07T03:11:38.424Z,76.01
2023-01-07T03:14:18.582Z,76.20
2023-01-07T03:16:53.340Z,76.35
2023-01-07T03:19:28.297Z,76.35
2023-01-07T03:21:57.388Z,76.33
2023-01-07T03:24:28.636Z,76.63
2023-01-07T03:27:04.287Z,76.51
2023-01-07T03:29:35.203Z,76.60
2023-01-07T03:32:09.412Z,76.40
2023-01-07T03:34:39.229Z,76.30
2023-01-07T03:37:12.037Z,76.40
2023-01-07T03:39:44.019Z,76.13
2023-01-07T03:42:32.372Z,76.08
2023-01-07T03:45:01.912Z,76.21
2023-01-07T03:47:34.617Z,76.28
2023-01-07T03:50:04.444Z,76.10
2023-01-07T03:52:33.555Z,76.23
2023-01-07T03:55:04.408Z,76.60
2023-01-07T03:57:34.230Z,76.63
2023-01-07T04:00:06.753Z,76.79
2023-01-07T04:02:43.472Z,76.45
2023-01-07T04:05:19.183Z,76.78
2023-01-07T04:07:48.172Z,76.50
2023-01-07T04:10:17.474Z,76.59
2023-01-07T04:12:46.445Z,76.33
2023-01-07T04:15:15.719Z,76.09
2023-01-07T04:17:44.690Z,76.32
2023-01-07T04:20:14.623Z,76.32
2023-01-07T04:22:43.691Z,76.34
2023-01-07T04:25:12.662Z,76.34
2023-01-07T04:27:41.920Z,76.49
2023-01-07T04:30:12.510Z,76.63
2023-01-07T04:32:41.602Z,76.92
2023-01-07T04:35:12.267Z,77.13
2023-01-07T04:37:41.608Z,77.42
2023-01-07T04:40:12.172Z,77.42
2023-01-07T04:42:41.380Z,77.45
2023-01-07T04:45:12.100Z,77.41
2023-01-07T04:47:41.079Z,77.39
2023-01-07T04:50:10.779Z,77.23
2023-01-07T04:52:39.763Z,77.06
2023-01-07T04:55:10.926Z,77.27
2023-01-07T04:57:39.926Z,77.41
2023-01-07T05:00:11.566Z,77.20
2023-01-07T05:02:40.779Z,77.35
2023-01-07T05:05:10.850Z,77.46
2023-01-07T05:07:40.531Z,77.60
2023-01-07T05:10:10.601Z,77.71
2023-01-07T05:12:39.626Z,77.69
2023-01-07T05:15:11.654Z,77.83
2023-01-07T05:17:42.245Z,78.01
2023-01-07T05:20:13.103Z,77.90
2023-01-07T05:22:42.188Z,77.48
2023-01-07T05:25:11.688Z,77.78
2023-01-07T05:27:41.186Z,77.85
2023-01-07T05:30:11.760Z,77.70
2023-01-07T05:32:40.764Z,77.71
2023-01-07T05:35:10.602Z,77.97
2023-01-07T05:37:39.978Z,78.06
2023-01-07T05:40:12.562Z,78.29
2023-01-07T05:42:41.642Z,78.25
2023-01-07T05:45:12.207Z,78.26
2023-01-07T05:47:42.483Z,78.33
2023-01-07T05:50:11.500Z,77.98
2023-01-07T05:52:40.600Z,78.10
2023-01-07T05:55:10.274Z,77.88
2023-01-07T05:57:39.250Z,77.84
2023-01-07T06:00:11.163Z,77.81
2023-01-07T06:02:42.851Z,77.94
2023-01-07T06:05:12.330Z,78.35
2023-01-07T06:07:41.343Z,78.37
2023-01-07T06:10:11.082Z,78.71
2023-01-07T06:12:40.063Z,78.58
2023-01-07T06:15:10.694Z,78.64
2023-01-07T06:17:39.805Z,78.81
2023-01-07T06:20:10.990Z,78.68
2023-01-07T06:22:39.914Z,78.59
2023-01-07T06:25:10.420Z,78.54
2023-01-07T06:27:40.613Z,78.06
2023-01-07T06:30:11.877Z,77.89
2023-01-07T06:32:43.163Z,78.26
2023-01-07T06:35:12.798Z,78.15
2023-01-07T06:37:41.723Z,78.37
2023-01-07T06:40:12.315Z,78.44
2023-01-07T06:42:41.284Z,78.93
2023-01-07T06:45:11.508Z,78.99
2023-01-07T06:47:40.445Z,78.88
2023-01-07T06:50:11.118Z,78.77
2023-01-07T06:52:40.062Z,79.03
2023-01-07T06:55:10.545Z,78.71
2023-01-07T06:57:39.503Z,78.78
2023-01-07T07:00:10.893Z,78.41
2023-01-07T07:02:39.883Z,78.20
2023-01-07T07:05:10.254Z,78.34
2023-01-07T07:07:39.177Z,78.45
2023-01-07T07:10:09.983Z,78.69
2023-01-07T07:12:39.786Z,78.44
2023-01-07T07:15:10.415Z,78.89
2023-01-07T07:17:39.363Z,79.30
2023-01-07T07:20:10.297Z,79.13
2023-01-07T07:22:44.027Z,79.38
2023-01-07T07:25:13.130Z,79.42
2023-01-07T07:27:44.115Z,79.14
2023-01-07T07:30:14.969Z,79.30
2023-01-07T07:32:44.443Z,78.93
2023-01-07T07:35:13.761Z,79.14
2023-01-07T07:37:42.699Z,78.89
2023-01-07T07:40:13.133Z,79.15
2023-01-07T07:43:10.808Z,78.83
2023-01-07T07:45:31.053Z,79.06
2023-01-07T07:48:00.002Z,79.42
2023-01-07T07:50:28.996Z,79.55
2023-01-07T07:52:57.936Z,79.74
2023-01-07T07:55:27.171Z,79.85
2023-01-07T07:57:56.491Z,79.58
2023-01-07T08:00:25.689Z,79.25
2023-01-07T08:02:58.168Z,79.28
2023-01-07T08:05:27.847Z,79.64
2023-01-07T08:07:57.635Z,79.54
2023-01-07T08:10:27.499Z,79.74
2023-01-07T08:12:56.489Z,79.73
2023-01-07T08:15:25.492Z,79.67
2023-01-07T08:18:03.694Z,79.80
2023-01-07T08:20:33.764Z,79.97
2023-01-07T08:23:04.418Z,80.16
2023-01-07T08:25:35.057Z,80.17
2023-01-07T08:28:04.843Z,79.95
2023-01-07T08:30:33.834Z,79.87
2023-01-07T08:33:05.415Z,79.78
2023-01-07T08:35:34.982Z,79.59
2023-01-07T08:38:05.821Z,79.75
2023-01-07T08:40:35.288Z,80.26
2023-01-07T08:43:06.638Z,80.22
2023-01-07T08:45:35.967Z,80.43
2023-01-07T08:48:06.068Z,80.32
2023-01-07T08:50:35.054Z,80.76
2023-01-07T08:53:03.973Z,80.68
2023-01-07T08:55:32.912Z,80.63
2023-01-07T08:58:01.775Z,80.79
2023-01-07T09:00:30.765Z,81.03
2023-01-07T09:02:59.719Z,80.95
2023-01-07T09:05:28.682Z,80.27
2023-01-07T09:07:57.759Z,80.47
2023-01-07T09:10:26.696Z,80.47
2023-01-07T09:12:55.637Z,80.64
2023-01-07T09:15:24.806Z,80.31
2023-01-07T09:17:53.860Z,80.97
2023-01-07T09:20:22.832Z,80.97
2023-01-07T09:22:51.792Z,81.06
2023-01-07T09:25:20.764Z,81.11
2023-01-07T09:27:49.733Z,81.39
2023-01-07T09:30:19.138Z,81.66
2023-01-07T09:32:48.156Z,81.68
2023-01-07T09:35:17.223Z,81.47
2023-01-07T09:37:46.269Z,81.42
2023-01-07T09:40:23.453Z,81.55
2023-01-07T09:42:59.997Z,81.56
2023-01-07T09:45:33.100Z,81.44
2023-01-07T09:48:05.882Z,81.37
2023-01-07T09:50:44.952Z,81.78
2023-01-07T09:53:19.765Z,81.68
2023-01-07T09:56:11.816Z,82.05
2023-01-07T09:58:45.679Z,82.14
2023-01-07T10:01:25.722Z,82.07
2023-01-07T10:04:13.880Z,82.47
2023-01-07T10:06:50.803Z,82.03
2023-01-07T10:09:34.742Z,82.06
2023-01-07T10:12:19.994Z,82.29
2023-01-07T10:14:59.945Z,81.65
2023-01-07T10:17:43.128Z,82.48
2023-01-07T10:20:20.699Z,82.80
2023-01-07T10:22:55.190Z,82.31
2023-01-07T10:25:29.483Z,82.34
2023-01-07T10:28:04.794Z,82.56
2023-01-07T10:30:41.739Z,82.56
2023-01-07T10:33:19.380Z,82.75
2023-01-07T10:35:52.238Z,82.90
2023-01-07T10:38:21.174Z,83.10
2023-01-07T10:40:54.960Z,83.32
2023-01-07T10:43:41.416Z,83.31
2023-01-07T10:46:28.428Z,83.47
2023-01-07T10:49:14.678Z,83.09
2023-01-07T10:52:19.587Z,82.99
2023-01-07T10:55:03.000Z,83.08
2023-01-07T10:57:33.914Z,83.37
2023-01-07T11:00:07.233Z,83.20
2023-01-07T11:02:37.538Z,83.60
2023-01-07T11:05:10.743Z,83.76
2023-01-07T11:07:44.323Z,84.00
2023-01-07T11:10:19.430Z,84.22
2023-01-07T11:12:53.241Z,83.90
2023-01-07T11:15:27.971Z,83.62
2023-01-07T11:18:01.603Z,84.23
2023-01-07T11:20:48.236Z,84.07
2023-01-07T11:23:30.849Z,84.47
2023-01-07T11:26:15.583Z,84.20
2023-01-07T11:28:50.757Z,84.07
2023-01-07T11:31:20.351Z,83.89
2023-01-07T11:34:01.935Z,84.00
2023-01-07T11:36:42.937Z,84.22
2023-01-07T11:39:18.895Z,84.68
2023-01-07T11:41:57.021Z,84.33
2023-01-07T11:44:26.572Z,84.29
2023-01-07T11:46:55.825Z,84.52
2023-01-07T11:49:28.189Z,84.83
2023-01-07T11:51:58.518Z,85.12
2023-01-07T11:54:29.361Z,85.13
2023-01-07T11:57:13.215Z,85.13
2023-01-07T11:59:42.204Z,84.82
2023-01-07T12:02:25.432Z,84.47
2023-01-07T12:05:18.148Z,84.75
2023-01-07T12:07:48.562Z,84.83
2023-01-07T12:10:38.574Z,84.90
2023-01-07T12:13:20.216Z,84.54
2023-01-07T12:15:53.909Z,85.10
2023-01-07T12:18:56.223Z,84.75
2023-01-07T12:21:40.292Z,85.21
2023-01-07T12:24:45.696Z,85.84
2023-01-07T12:27:27.056Z,85.83
2023-01-07T12:30:15.117Z,85.81
2023-01-07T12:32:56.524Z,86.00
2023-01-07T12:35:28.074Z,85.53
2023-01-07T12:38:02.882Z,85.34
2023-01-07T12:40:37.518Z,85.37
2023-01-07T12:43:14.132Z,85.46
2023-01-07T12:45:47.903Z,85.54
2023-01-07T12:48:23.627Z,85.81
2023-01-07T12:50:55.638Z,85.93
2023-01-07T12:53:31.793Z,86.00
2023-01-07T12:56:07.082Z,85.96
2023-01-07T12:58:45.088Z,86.29
2023-01-07T13:01:25.756Z,86.29
2023-01-07T13:04:06.948Z,86.54
2023-01-07T13:06:43.964Z,86.71
2023-01-07T13:09:28.777Z,86.61
2023-01-07T13:12:41.168Z,86.51
2023-01-07T13:15:20.170Z,86.24
2023-01-07T13:17:52.997Z,86.23
2023-01-07T13:20:35.416Z,86.09
2023-01-07T13:23:05.530Z,86.30
2023-01-07T13:25:48.075Z,86.31
2023-01-07T13:28:47.042Z,86.27
2023-01-07T13:31:43.292Z,86.36
2023-01-07T13:34:23.983Z,86.46
2023-01-07T13:37:08.478Z,87.02
2023-01-07T13:39:55.240Z,86.72
2023-01-07T13:42:37.185Z,86.80
2023-01-07T13:45:16.535Z,86.61
2023-01-07T13:47:50.043Z,86.27
2023-01-07T13:50:27.190Z,86.20
2023-01-07T13:53:02.274Z,86.43
2023-01-07T13:55:40.375Z,86.41
2023-01-07T13:58:43.851Z,86.39
2023-01-07T14:01:14.550Z,86.71
2023-01-07T14:03:49.255Z,86.60
2023-01-07T14:06:46.492Z,87.01
2023-01-07T14:09:31.699Z,86.96
2023-01-07T14:12:38.649Z,87.31
2023-01-07T14:15:48.247Z,87.04
2023-01-07T14:18:49.578Z,86.55
2023-01-07T14:21:26.478Z,86.66
2023-01-07T14:24:15.785Z,86.77
2023-01-07T14:26:53.807Z,86.85
2023-01-07T14:29:47.251Z,86.77
2023-01-07T14:32:31.186Z,87.04
2023-01-07T14:35:33.494Z,87.02
2023-01-07T14:38:22.399Z,86.82
2023-01-07T14:41:05.186Z,87.24
2023-01-07T14:44:04.613Z,87.33
2023-01-07T14:46:50.856Z,87.40
2023-01-07T14:49:41.422Z,87.63
2023-01-07T14:52:20.170Z,87.60
2023-01-07T14:55:04.642Z,86.92
2023-01-07T14:57:43.282Z,86.92
2023-01-07T15:00:43.524Z,87.03
2023-01-07T15:03:33.409Z,87.25
2023-01-07T15:06:29.215Z,87.34
2023-01-07T15:09:24.259Z,87.49
2023-01-07T15:12:13.841Z,87.28
2023-01-07T15:15:05.027Z,87.75
2023-01-07T15:17:38.006Z,87.93
2023-01-07T15:20:10.210Z,88.01
2023-01-07T15:22:59.659Z,87.94
2023-01-07T15:25:43.854Z,87.56
2023-01-07T15:28:21.861Z,87.49
2023-01-07T15:31:00.614Z,87.46
2023-01-07T15:33:44.412Z,87.23
2023-01-07T15:36:15.569Z,87.52
2023-01-07T15:38:50.252Z,87.49
2023-01-07T15:41:26.845Z,87.53
2023-01-07T15:43:56.710Z,87.44
2023-01-07T15:46:27.140Z,87.78
2023-01-07T15:49:16.687Z,87.82
2023-01-07T15:51:47.882Z,87.90
2023-01-07T15:54:37.702Z,87.98
2023-01-07T15:57:10.446Z,88.04
2023-01-07T15:59:44.922Z,87.46
2023-01-07T16:02:24.140Z,87.61
2023-01-07T16:04:55.019Z,87.42
2023-01-07T16:07:28.208Z,87.43
2023-01-07T16:09:58.073Z,87.63
2023-01-07T16:12:33.002Z,87.56
2023-01-07T16:15:02.965Z,87.70
2023-01-07T16:17:34.651Z,88.15
2023-01-07T16:20:11.710Z,88.15
2023-01-07T16:22:42.135Z,88.21
2023-01-07T16:25:20.553Z,88.20
2023-01-07T16:27:50.493Z,88.18
2023-01-07T16:30:19.925Z,87.72
2023-01-07T16:32:49.046Z,87.63
2023-01-07T16:35:25.387Z,87.79
2023-01-07T16:37:54.611Z,87.59
2023-01-07T16:40:29.798Z,87.68
2023-01-07T16:42:58.768Z,87.48
2023-01-07T16:45:30.111Z,87.76
2023-01-07T16:48:20.892Z,87.87
2023-01-07T16:50:52.504Z,88.03
2023-01-07T16:53:25.290Z,88.20
2023-01-07T16:56:07.366Z,88.16
2023-01-07T16:58:41.909Z,88.10
2023-01-07T17:01:11.472Z,87.57
2023-01-07T17:03:51.805Z,87.65
2023-01-07T17:06:25.268Z,87.75
2023-01-07T17:08:55.907Z,87.71
2023-01-07T17:11:31.857Z,87.73
2023-01-07T17:14:00.804Z,87.88
2023-01-07T17:16:31.779Z,88.04
2023-01-07T17:19:24.825Z,88.02
2023-01-07T17:21:54.338Z,88.35
2023-01-07T17:24:47.297Z,88.33
2023-01-07T17:27:24.887Z,88.27
2023-01-07T17:29:54.618Z,88.31
2023-01-07T17:32:24.189Z,87.67
2023-01-07T17:34:53.276Z,87.56
2023-01-07T17:37:22.297Z,87.61
2023-01-07T17:39:51.541Z,87.85
2023-01-07T17:42:45.297Z,87.79
2023-01-07T17:45:19.616Z,87.86
2023-01-07T17:47:49.145Z,88.17
2023-01-07T17:50:20.406Z,88.31
2023-01-07T17:52:51.485Z,88.25
2023-01-07T17:55:25.036Z,88.42
2023-01-07T17:57:54.052Z,88.64
2023-01-07T18:00:25.788Z,88.65
2023-01-07T18:02:56.930Z,88.72
2023-01-07T18:05:27.204Z,88.59
2023-01-07T18:07:56.170Z,88.09
2023-01-07T18:10:49.179Z,87.97
2023-01-07T18:13:18.115Z,88.28
2023-01-07T18:15:47.167Z,88.01
2023-01-07T18:18:16.157Z,87.94
2023-01-07T18:20:45.168Z,88.12
2023-01-07T18:23:14.204Z,88.13
2023-01-07T18:25:44.547Z,88.40
2023-01-07T18:28:13.490Z,88.69
2023-01-07T18:30:42.612Z,88.47
2023-01-07T18:33:12.176Z,88.35
2023-01-07T18:35:41.137Z,88.44
2023-01-07T18:38:14.089Z,87.99
2023-01-07T18:40:43.597Z,87.93
2023-01-07T18:43:15.032Z,87.90
2023-01-07T18:45:45.366Z,88.07
2023-01-07T18:48:15.964Z,88.11
2023-01-07T18:50:46.431Z,88.16
2023-01-07T18:53:16.332Z,88.40
2023-01-07T18:55:46.017Z,88.39
2023-01-07T18:58:15.997Z,88.70
2023-01-07T19:00:44.992Z,88.88
2023-01-07T19:03:13.974Z,88.86
2023-01-07T19:05:42.843Z,88.94
2023-01-07T19:08:11.803Z,88.94
2023-01-07T19:10:44.492Z,88.52
2023-01-07T19:13:13.374Z,88.33
2023-01-07T19:15:42.580Z,88.48
2023-01-07T19:18:11.537Z,88.47
2023-01-07T19:20:40.563Z,88.45
2023-01-07T19:23:09.412Z,88.51
2023-01-07T19:25:38.344Z,88.26
2023-01-07T19:28:07.328Z,88.74
2023-01-07T19:30:36.258Z,88.78
2023-01-07T19:33:05.378Z,88.94
2023-01-07T19:35:34.347Z,89.01
2023-01-07T19:38:03.273Z,88.91
2023-01-07T19:40:32.258Z,88.39
2023-01-07T19:43:01.147Z,88.39
2023-01-07T19:45:30.115Z,88.51
2023-01-07T19:47:59.060Z,88.57
2023-01-07T19:50:28.042Z,88.69
2023-01-07T19:52:56.968Z,88.63
2023-01-07T19:55:26.647Z,88.59
2023-01-07T19:57:55.856Z,88.77
2023-01-07T20:00:24.870Z,88.86
2023-01-07T20:02:53.816Z,89.20
2023-01-07T20:05:24.703Z,89.19
2023-01-07T20:07:53.607Z,89.33
2023-01-07T20:10:22.559Z,89.29
2023-01-07T20:12:53.015Z,89.10
2023-01-07T20:15:21.888Z,88.61
2023-01-07T20:17:50.856Z,88.61
2023-01-07T20:20:19.776Z,88.61
2023-01-07T20:22:48.714Z,88.71
2023-01-07T20:25:18.059Z,88.79
2023-01-07T20:27:47.079Z,88.84
2023-01-07T20:30:16.176Z,88.78
2023-01-07T20:32:45.710Z,88.86
2023-01-07T20:35:14.932Z,88.92
2023-01-07T20:37:43.924Z,89.19
2023-01-07T20:40:13.976Z,89.56
2023-01-07T20:42:42.913Z,89.68
2023-01-07T20:45:12.501Z,89.41
2023-01-07T20:47:41.544Z,89.12
2023-01-07T20:50:10.562Z,88.88
2023-01-07T20:52:39.527Z,89.03
2023-01-07T20:55:09.739Z,89.20
2023-01-07T20:57:38.668Z,88.99
2023-01-07T21:00:10.258Z,89.28
2023-01-07T21:02:39.251Z,89.18
2023-01-07T21:05:09.799Z,89.32
2023-01-07T21:07:38.716Z,89.59
2023-01-07T21:10:08.652Z,89.78
2023-01-07T21:12:37.620Z,90.12
2023-01-07T21:15:09.300Z,90.17
2023-01-07T21:17:38.500Z,90.35
2023-01-07T21:20:12.335Z,90.28
2023-01-07T21:22:41.459Z,89.49
2023-01-07T21:25:13.289Z,89.32
2023-01-07T21:27:43.364Z,89.64
2023-01-07T21:30:14.032Z,89.72
2023-01-07T21:32:43.496Z,89.62
2023-01-07T21:35:13.527Z,89.73
2023-01-07T21:37:42.427Z,89.94
2023-01-07T21:40:12.356Z,89.82
2023-01-07T21:42:41.366Z,90.07
2023-01-07T21:45:12.057Z,90.37
2023-01-07T21:47:41.120Z,90.37
2023-01-07T21:50:10.349Z,90.51
2023-01-07T21:52:39.333Z,90.68
2023-01-07T21:55:10.220Z,90.70
2023-01-07T21:57:39.400Z,90.27
2023-01-07T22:00:10.097Z,90.19
2023-01-07T22:02:42.191Z,90.45
2023-01-07T22:05:11.935Z,90.41
2023-01-07T22:07:40.908Z,90.47
2023-01-07T22:10:10.884Z,90.53
2023-01-07T22:12:39.794Z,90.49
2023-01-07T22:15:09.853Z,90.50
2023-01-07T22:17:38.774Z,90.61
2023-01-07T22:20:10.649Z,90.93
2023-01-07T22:22:39.666Z,90.96
2023-01-07T22:25:10.380Z,91.25
2023-01-07T22:27:39.313Z,91.31
2023-01-07T22:30:10.604Z,91.04
2023-01-07T22:32:39.671Z,90.35
2023-01-07T22:35:09.520Z,90.34
2023-01-07T22:37:39.799Z,90.36
2023-01-07T22:40:10.980Z,90.62
2023-01-07T22:42:46.330Z,90.75
2023-01-07T22:45:18.339Z,90.72
2023-01-07T22:47:50.921Z,90.88
2023-01-07T22:50:20.393Z,91.00
2023-01-07T22:52:49.471Z,90.84
2023-01-07T22:55:18.983Z,91.14
2023-01-07T22:57:48.125Z,91.04
2023-01-07T23:00:37.755Z,91.03
2023-01-07T23:03:07.066Z,91.24
2023-01-07T23:05:37.390Z,90.44
2023-01-07T23:08:07.866Z,90.54
2023-01-07T23:10:37.999Z,90.46
2023-01-07T23:13:08.001Z,90.57
2023-01-07T23:15:38.608Z,90.68
2023-01-07T23:18:09.494Z,90.46
2023-01-07T23:20:40.738Z,90.56
2023-01-07T23:23:10.499Z,90.73
2023-01-07T23:25:45.303Z,90.93
2023-01-07T23:28:15.058Z,90.99
2023-01-07T23:30:44.037Z,90.68
2023-01-07T23:33:13.055Z,90.41
2023-01-07T23:35:41.973Z,90.21
2023-01-07T23:38:10.909Z,90.12
2023-01-07T23:40:40.544Z,90.07
2023-01-07T23:43:14.966Z,90.20
2023-01-07T23:45:44.301Z,90.42
2023-01-07T23:48:13.292Z,90.52
2023-01-07T23:50:42.256Z,90.38
2023-01-07T23:53:11.149Z,90.61
2023-01-07T23:55:40.146Z,90.81
2023-01-07T23:58:09.056Z,90.92
